Аэропорт: Нариманово. Астрахань

ICAO: URWA

METAR:
2022-01-28 08:30:00
URWA 280830Z 26008MPS 4500 -SN BR OVC009 M03/M04 Q1017 R27/490150 TEMPO 1200 SN OVC006 RMK QFE764/1019
METAR:
2022-01-28 05:00:00
TAF URWA 280500Z 2806/2815 28008G15MPS 6000 FEW006 BKN016 BECMG 2812/2814 26003G10MPS